Time;durP1;ratioP1;P1;durP2;ratioP2;P2;SDS_P1;SDS_P2;PMS_P1;PMS_P2;Temp;Humidity;BMP_temperature;BMP_pressure;BME280_temperature;BME280_humidity;BME280_pressure;Samples;Min_cycle;Max_cycle;Signal;HPM_P1;HPM_P2
2021/05/20 00:00:19;;;;;;;0.10;0.00;;;;;;;11.74;100.00;99483.41;1750484;81;21161;-47
2021/05/20 00:02:46;;;;;;;0.00;0.00;;;;;;;11.73;100.00;99479.88;1731204;81;21074;-47
2021/05/20 00:05:15;;;;;;;0.00;0.00;;;;;;;11.73;100.00;99479.07;1720526;82;21066;-46
2021/05/20 00:07:43;;;;;;;0.05;0.05;;;;;;;11.72;100.00;99477.44;1717795;81;21049;-42
2021/05/20 00:10:11;;;;;;;0.37;0.30;;;;;;;11.70;100.00;99481.06;1723621;82;21082;-46
2021/05/20 00:12:38;;;;;;;0.03;0.03;;;;;;;11.68;100.00;99480.56;1739236;81;21069;-42
2021/05/20 00:15:07;;;;;;;0.53;0.10;;;;;;;11.66;100.00;99480.86;1748118;81;21097;-41
2021/05/20 00:17:33;;;;;;;0.00;0.00;;;;;;;11.65;100.00;99479.78;1737716;81;21044;-45
2021/05/20 00:20:00;;;;;;;0.00;0.00;;;;;;;11.62;100.00;99480.69;1721144;83;21031;-46
2021/05/20 00:22:29;;;;;;;0.00;0.00;;;;;;;11.62;100.00;99477.11;1723789;82;21529;-46
2021/05/20 00:24:56;;;;;;;0.10;0.10;;;;;;;11.63;100.00;99489.13;1746508;81;21050;-43
2021/05/20 00:27:23;;;;;;;0.05;0.05;;;;;;;11.63;100.00;99489.13;1748234;81;21110;-42
2021/05/20 00:29:50;;;;;;;0.15;0.15;;;;;;;11.65;100.00;99489.37;1744801;81;21558;-41
2021/05/20 00:32:17;;;;;;;0.00;0.00;;;;;;;11.67;100.00;99488.50;1713516;83;21007;-41
2021/05/20 00:34:44;;;;;;;0.85;0.35;;;;;;;11.68;100.00;99495.61;1749682;81;21228;-46
2021/05/20 00:37:10;;;;;;;0.17;0.17;;;;;;;11.69;100.00;99496.66;1748846;81;21141;-42
2021/05/20 00:39:37;;;;;;;0.10;0.10;;;;;;;11.72;100.00;99496.59;1743612;81;21597;-45
2021/05/20 00:42:12;;;;;;;0.00;0.00;;;;;;;11.73;100.00;99503.13;1734885;80;21141;-43
2021/05/20 00:44:58;;;;;;;0.23;0.23;;;;;;;11.75;100.00;99502.84;1702332;83;21017;-41
2021/05/20 00:47:26;;;;;;;0.20;0.20;;;;;;;11.76;100.00;99503.07;1741254;81;21061;-45
2021/05/20 00:49:53;;;;;;;0.00;0.00;;;;;;;11.77;100.00;99495.09;1722248;81;21042;-46
2021/05/20 00:52:20;;;;;;;0.23;0.23;;;;;;;11.78;100.00;99503.58;1746714;81;21075;-41
2021/05/20 00:54:52;;;;;;;0.13;0.13;;;;;;;11.80;100.00;99502.71;1748174;81;21062;-41
2021/05/20 00:57:19;;;;;;;0.10;0.10;;;;;;;11.81;100.00;99506.48;1749142;81;21153;-45
2021/05/20 00:59:46;;;;;;;0.20;0.20;;;;;;;11.81;100.00;99499.64;1746386;81;21089;-45
2021/05/20 01:02:13;;;;;;;0.10;0.10;;;;;;;11.83;100.00;99504.82;1747765;81;21476;-46
2021/05/20 01:04:39;;;;;;;0.00;0.00;;;;;;;11.83;100.00;99502.08;1750344;81;21031;-46
2021/05/20 01:07:06;;;;;;;0.20;0.20;;;;;;;11.83;100.00;99505.63;1745915;80;21659;-45
2021/05/20 01:09:35;;;;;;;0.08;0.08;;;;;;;11.84;100.00;99508.63;1747144;80;21046;-45
2021/05/20 01:12:08;;;;;;;0.20;0.10;;;;;;;11.86;100.00;99509.66;1747326;81;21041;-41
2021/05/20 01:14:44;;;;;;;0.00;0.00;;;;;;;11.85;100.00;99502.59;1749614;81;21051;-45
2021/05/20 01:17:12;;;;;;;0.10;0.10;;;;;;;11.85;100.00;99499.84;1750842;81;21418;-41
2021/05/20 01:19:45;;;;;;;0.25;0.25;;;;;;;11.85;100.00;99501.22;1745924;81;21047;-45
2021/05/20 01:22:11;;;;;;;0.00;0.00;;;;;;;11.86;100.00;99506.13;1746645;81;21006;-40
2021/05/20 01:24:39;;;;;;;0.42;0.28;;;;;;;11.84;100.00;99511.90;1749468;81;21027;-41
2021/05/20 01:27:07;;;;;;;0.00;0.00;;;;;;;11.83;100.00;99507.55;1737166;81;21150;-43
2021/05/20 01:29:34;;;;;;;0.10;0.10;;;;;;;11.82;100.00;99514.16;1746335;81;21069;-44
2021/05/20 01:32:01;;;;;;;0.30;0.30;;;;;;;11.80;100.00;99503.52;1708284;83;21135;-46
2021/05/20 01:34:32;;;;;;;0.20;0.20;;;;;;;11.80;100.00;99506.81;1744307;81;21031;-45
2021/05/20 01:37:01;;;;;;;0.17;0.10;;;;;;;11.78;100.00;99508.48;1746063;81;20975;-46
2021/05/20 01:39:28;;;;;;;0.40;0.10;;;;;;;11.76;100.00;99512.08;1746551;81;21030;-43
2021/05/20 01:41:55;;;;;;;0.30;0.30;;;;;;;11.74;100.00;99509.41;1749326;81;21390;-45
2021/05/20 01:44:22;;;;;;;0.10;0.10;;;;;;;11.71;100.00;99509.47;1748803;81;21031;-43
2021/05/20 01:46:49;;;;;;;0.08;0.08;;;;;;;11.69;100.00;99518.55;1748983;81;21030;-40
2021/05/20 01:49:15;;;;;;;0.57;0.57;;;;;;;11.68;100.00;99507.92;1749802;81;20956;-46
2021/05/20 01:51:43;;;;;;;0.47;0.10;;;;;;;11.66;100.00;99512.89;1750866;81;21098;-46
2021/05/20 01:54:10;;;;;;;0.00;0.00;;;;;;;11.64;100.00;99511.82;1748590;81;21058;-45
2021/05/20 01:56:36;;;;;;;0.55;0.30;;;;;;;11.63;100.00;99513.76;1746688;81;21035;-40
2021/05/20 01:59:06;;;;;;;0.00;0.00;;;;;;;11.62;100.00;99513.52;1727280;81;21029;-41
2021/05/20 02:01:34;;;;;;;0.00;0.00;;;;;;;11.62;100.00;99512.16;1718524;82;21054;-41
2021/05/20 02:04:00;;;;;;;0.00;0.00;;;;;;;11.63;100.00;99517.86;1717937;81;21572;-41
2021/05/20 02:06:27;;;;;;;0.00;0.00;;;;;;;11.63;100.00;99516.49;1711105;82;21034;-45
2021/05/20 02:08:54;;;;;;;0.25;0.20;;;;;;;11.66;100.00;99523.84;1744559;81;21050;-41
2021/05/20 02:11:20;;;;;;;0.42;0.05;;;;;;;11.65;100.00;99522.20;1747772;81;21539;-45
2021/05/20 02:13:47;;;;;;;0.55;0.20;;;;;;;11.65;100.00;99520.84;1747709;80;21086;-45
2021/05/20 02:16:14;;;;;;;0.00;0.00;;;;;;;11.62;100.00;99520.36;1748299;81;21078;-41
2021/05/20 02:18:42;;;;;;;0.45;0.40;;;;;;;11.61;100.00;99524.77;1750558;81;21133;-45
2021/05/20 02:21:08;;;;;;;0.10;0.10;;;;;;;11.58;100.00;99523.45;1750500;81;21600;-41
2021/05/20 02:23:35;;;;;;;0.42;0.42;;;;;;;11.56;100.00;99520.78;1749518;81;21426;-45
2021/05/20 02:26:01;;;;;;;8.50;2.62;;;;;;;11.56;100.00;99522.14;1745761;81;21073;-42
2021/05/20 02:28:27;;;;;;;0.15;0.13;;;;;;;11.55;100.00;99524.08;1746024;81;21043;-41
2021/05/20 02:30:55;;;;;;;0.33;0.30;;;;;;;11.55;100.00;99520.54;1750440;81;21603;-45
2021/05/20 02:33:21;;;;;;;0.70;0.47;;;;;;;11.55;100.00;99517.23;1749988;81;21019;-41
2021/05/20 02:35:48;;;;;;;0.10;0.10;;;;;;;11.56;100.00;99522.14;1749989;81;21027;-45
2021/05/20 02:38:14;;;;;;;0.30;0.30;;;;;;;11.56;100.00;99517.47;1750166;81;20971;-41
2021/05/20 02:40:41;;;;;;;0.00;0.00;;;;;;;11.56;100.00;99513.37;1749076;82;21035;-46
2021/05/20 02:43:07;;;;;;;0.00;0.00;;;;;;;11.58;100.00;99517.98;1748444;81;21544;-45
2021/05/20 02:45:34;;;;;;;0.30;0.30;;;;;;;11.58;100.00;99516.61;1749704;81;21604;-40
2021/05/20 02:48:00;;;;;;;0.00;0.00;;;;;;;11.61;100.00;99517.36;1743145;81;21029;-45
2021/05/20 02:50:27;;;;;;;0.28;0.28;;;;;;;11.62;100.00;99513.52;1730840;81;21093;-41
2021/05/20 02:52:54;;;;;;;0.42;0.33;;;;;;;11.64;100.00;99521.41;1678400;84;21059;-40
2021/05/20 02:55:22;;;;;;;0.10;0.10;;;;;;;11.63;100.00;99523.33;1743541;81;21085;-41
2021/05/20 02:57:57;;;;;;;0.25;0.25;;;;;;;11.65;100.00;99519.47;1746717;81;21042;-41
2021/05/20 03:00:19;;;;;;;0.20;0.20;;;;;;;11.67;100.00;99515.86;1738771;81;21193;-40
2021/05/20 03:02:49;;;;;;;0.23;0.23;;;;;;;11.67;100.00;99519.44;1746546;81;21479;-41
2021/05/20 03:05:16;;;;;;;0.10;0.10;;;;;;;11.66;100.00;99519.17;1748279;81;21165;-45
2021/05/20 03:07:44;;;;;;;0.13;0.13;;;;;;;11.66;100.00;99513.70;1744945;81;21634;-40
2021/05/20 03:10:11;;;;;;;0.17;0.17;;;;;;;11.67;100.00;99521.34;1748169;81;21030;-46
2021/05/20 03:12:39;;;;;;;0.10;0.10;;;;;;;11.68;100.00;99524.34;1732348;81;21066;-44
2021/05/20 03:15:07;;;;;;;0.00;0.00;;;;;;;11.68;100.00;99520.23;1743636;81;21102;-40
2021/05/20 03:17:33;;;;;;;0.15;0.15;;;;;;;11.69;100.00;99519.91;1726590;81;21619;-45
2021/05/20 03:20:00;;;;;;;0.03;0.03;;;;;;;11.69;100.00;99519.91;1711143;83;21023;-40
2021/05/20 03:22:27;;;;;;;1.12;0.20;;;;;;;11.69;100.00;99520.48;1717941;81;21058;-45
2021/05/20 03:24:54;;;;;;;0.28;0.28;;;;;;;11.70;100.00;99522.11;1715727;81;20983;-40
2021/05/20 03:27:21;;;;;;;0.25;0.10;;;;;;;11.70;100.00;99528.39;1729145;81;20969;-45
2021/05/20 03:29:47;;;;;;;0.10;0.10;;;;;;;11.70;100.00;99529.76;1747452;81;21074;-40
2021/05/20 03:32:14;;;;;;;0.25;0.17;;;;;;;11.72;100.00;99530.80;1746514;82;21026;-42
2021/05/20 03:34:40;;;;;;;0.13;0.13;;;;;;;11.72;100.00;99530.80;1720659;83;21564;-40
2021/05/20 03:37:07;;;;;;;0.10;0.10;;;;;;;11.75;100.00;99530.20;1746129;80;21023;-46
2021/05/20 03:39:34;;;;;;;0.30;0.30;;;;;;;11.76;100.00;99530.44;1744972;81;21082;-45
2021/05/20 03:42:03;;;;;;;0.33;0.33;;;;;;;11.78;100.00;99524.91;1744361;81;21011;-42
2021/05/20 03:44:30;;;;;;;0.10;0.10;;;;;;;11.80;100.00;99530.88;1744846;81;21106;-40
2021/05/20 03:46:57;;;;;;;0.15;0.15;;;;;;;11.85;100.00;99527.22;1747711;80;21087;-45
2021/05/20 03:49:24;;;;;;;0.23;0.23;;;;;;;11.89;100.00;99526.06;1733757;81;21090;-41
2021/05/20 03:51:50;;;;;;;0.08;0.08;;;;;;;11.92;100.00;99531.73;1715860;82;21251;-40
2021/05/20 03:54:17;;;;;;;0.23;0.23;;;;;;;11.99;100.00;99536.22;1738858;80;21038;-42
2021/05/20 03:56:44;;;;;;;0.47;0.28;;;;;;;12.03;100.00;99538.56;1747149;81;21651;-45
2021/05/20 03:59:10;;;;;;;0.20;0.20;;;;;;;12.07;100.00;99540.14;1745206;81;21054;-45
2021/05/20 04:01:40;;;;;;;0.10;0.10;;;;;;;12.12;100.00;99544.69;1748190;81;21022;-45
2021/05/20 04:04:06;;;;;;;0.15;0.15;;;;;;;12.14;100.00;99547.36;1743732;81;21077;-41
2021/05/20 04:06:32;;;;;;;2.47;1.37;;;;;;;12.17;100.00;99555.52;1734282;81;21010;-45
2021/05/20 04:08:59;;;;;;;0.42;0.25;;;;;;;12.19;100.00;99560.09;1741645;81;21003;-45
2021/05/20 04:11:28;;;;;;;0.17;0.17;;;;;;;12.18;100.00;99558.48;1743861;81;21177;-41
2021/05/20 04:13:57;;;;;;;0.25;0.25;;;;;;;12.19;100.00;99558.73;1743257;81;21061;-45
2021/05/20 04:16:28;;;;;;;0.00;0.00;;;;;;;12.19;100.00;99562.30;1743721;81;21053;-45
2021/05/20 04:18:53;;;;;;;0.03;0.03;;;;;;;12.20;100.00;99558.42;1739640;81;21043;-45
2021/05/20 04:21:19;;;;;;;0.10;0.10;;;;;;;12.23;100.00;99561.09;1719346;81;21049;-40
2021/05/20 04:23:46;;;;;;;0.20;0.20;;;;;;;12.25;100.00;99566.52;1747559;81;21058;-41
2021/05/20 04:26:13;;;;;;;0.23;0.23;;;;;;;12.27;99.92;99568.95;1745333;81;21016;-41
2021/05/20 04:28:40;;;;;;;0.00;0.00;;;;;;;12.31;99.74;99571.30;1748322;80;21060;-46
2021/05/20 04:31:09;;;;;;;0.00;0.00;;;;;;;12.37;98.95;99574.17;1759827;80;21070;-46
2021/05/20 04:33:36;;;;;;;0.13;0.13;;;;;;;12.42;98.49;99585.56;1737090;81;21578;-40
2021/05/20 04:36:03;;;;;;;0.88;0.88;;;;;;;12.43;98.01;99583.06;1724443;81;21112;-41
2021/05/20 04:38:29;;;;;;;0.28;0.20;;;;;;;12.44;97.37;99588.81;1743331;81;21070;-45
2021/05/20 04:40:55;;;;;;;0.98;0.15;;;;;;;12.43;96.86;99587.97;1735800;80;21050;-45
2021/05/20 04:43:22;;;;;;;0.03;0.03;;;;;;;12.42;96.61;99595.95;1744210;81;21031;-41
2021/05/20 04:45:48;;;;;;;0.00;0.00;;;;;;;12.42;96.24;99595.16;1744410;81;21088;-40
2021/05/20 04:48:14;;;;;;;0.00;0.00;;;;;;;12.42;95.87;99586.94;1744854;81;21038;-40
2021/05/20 04:50:42;;;;;;;1.62;0.78;;;;;;;12.43;95.64;99587.97;1746296;81;21552;-46
2021/05/20 04:53:09;;;;;;;0.10;0.10;;;;;;;12.45;95.47;99588.48;1745038;81;21020;-42
2021/05/20 04:55:36;;;;;;;0.25;0.25;;;;;;;12.48;95.17;99597.44;1733550;81;21038;-40
2021/05/20 04:58:03;;;;;;;0.05;0.03;;;;;;;12.50;94.85;99596.33;1723728;80;21562;-45
2021/05/20 05:00:29;;;;;;;0.00;0.00;;;;;;;12.50;94.75;99599.07;1718745;81;21800;-44
2021/05/20 05:02:56;;;;;;;0.33;0.20;;;;;;;12.51;94.54;99608.33;1731847;81;20998;-39
2021/05/20 05:05:24;;;;;;;0.10;0.10;;;;;;;12.53;94.34;99608.83;1748486;81;21129;-40
2021/05/20 05:07:51;;;;;;;1.80;1.12;;;;;;;12.54;93.98;99609.09;1730127;81;21078;-45
2021/05/20 05:10:18;;;;;;;0.10;0.10;;;;;;;12.56;93.71;99623.30;1718792;82;21192;-45
2021/05/20 05:12:44;;;;;;;0.20;0.20;;;;;;;12.59;93.59;99624.61;1735794;81;21067;-40
2021/05/20 05:15:13;;;;;;;0.10;0.10;;;;;;;12.61;93.14;99630.56;1746545;81;21003;-46
2021/05/20 05:17:39;;;;;;;0.00;0.00;;;;;;;12.63;93.03;99629.69;1729691;81;21122;-45
2021/05/20 05:20:07;;;;;;;0.40;0.28;;;;;;;12.67;92.89;99636.17;1738502;81;21591;-40
2021/05/20 05:22:33;;;;;;;0.20;0.20;;;;;;;12.69;92.41;99639.42;1725090;81;21622;-46
2021/05/20 05:25:01;;;;;;;0.53;0.33;;;;;;;12.73;92.18;99644.50;1741765;81;21042;-39
2021/05/20 05:27:27;;;;;;;0.78;0.20;;;;;;;12.77;91.99;99642.77;1746696;81;21161;-42
2021/05/20 05:29:54;;;;;;;1.75;0.17;;;;;;;12.80;91.66;99644.87;1748658;81;21086;-39
2021/05/20 05:32:20;;;;;;;0.40;0.40;;;;;;;12.83;91.33;99652.49;1749736;81;21540;-46
2021/05/20 05:34:47;;;;;;;0.00;0.00;;;;;;;12.83;91.18;99648.38;1747404;81;21151;-43
2021/05/20 05:37:13;;;;;;;0.10;0.10;;;;;;;12.86;91.13;99657.91;1750230;81;21106;-40
2021/05/20 05:39:40;;;;;;;0.00;0.00;;;;;;;12.85;90.66;99660.38;1750053;81;21075;-45
2021/05/20 05:42:07;;;;;;;0.17;0.15;;;;;;;12.85;90.49;99663.13;1745561;81;21117;-46
2021/05/20 05:44:33;;;;;;;0.20;0.20;;;;;;;12.83;90.17;99666.20;1746702;81;21503;-46
2021/05/20 05:47:01;;;;;;;0.53;0.42;;;;;;;12.83;90.08;99675.80;1735417;81;21495;-40
2021/05/20 05:49:31;;;;;;;0.10;0.10;;;;;;;12.83;89.84;99662.09;1747842;81;21024;-40
2021/05/20 05:52:05;;;;;;;0.10;0.10;;;;;;;12.86;89.55;99659.28;1749233;81;21007;-45
2021/05/20 05:54:28;;;;;;;0.28;0.28;;;;;;;12.90;89.06;99663.80;1733510;81;21010;-46
2021/05/20 05:56:55;;;;;;;0.00;0.00;;;;;;;12.98;88.75;99665.53;1722885;82;21484;-46
2021/05/20 05:59:21;;;;;;;0.20;0.20;;;;;;;13.06;88.45;99671.08;1718548;82;21576;-45
2021/05/20 06:01:47;;;;;;;0.13;0.13;;;;;;;13.12;87.99;99662.95;1715809;82;21101;-44
2021/05/20 06:04:17;;;;;;;0.10;0.10;;;;;;;13.16;87.83;99660.40;1715876;81;21137;-46
2021/05/20 06:06:46;;;;;;;0.10;0.10;;;;;;;13.18;87.25;99656.78;1719150;82;21030;-45
2021/05/20 06:09:12;;;;;;;0.42;0.42;;;;;;;13.21;87.03;99653.97;1719391;82;21026;-41
2021/05/20 06:11:39;;;;;;;0.17;0.17;;;;;;;13.26;86.60;99652.45;1683881;82;21441;-40
2021/05/20 06:14:08;;;;;;;0.00;0.00;;;;;;;13.32;86.24;99652.00;1720341;83;21051;-46
2021/05/20 06:16:34;;;;;;;0.17;0.10;;;;;;;13.45;85.94;99657.70;1720157;82;21022;-42
2021/05/20 06:19:03;;;;;;;0.57;0.55;;;;;;;13.62;86.14;99657.75;1735834;81;21202;-41
2021/05/20 06:21:30;;;;;;;1.27;0.30;;;;;;;13.83;85.77;99657.17;1744765;81;21085;-46
2021/05/20 06:23:57;;;;;;;0.47;0.47;;;;;;;14.09;85.21;99658.56;1744848;81;21112;-40
2021/05/20 06:26:25;;;;;;;0.15;0.15;;;;;;;14.34;84.21;99659.70;1745982;81;21059;-40
2021/05/20 06:28:51;;;;;;;0.10;0.10;;;;;;;14.55;82.76;99660.70;1751238;81;21625;-46
2021/05/20 06:31:18;;;;;;;0.10;0.10;;;;;;;14.70;80.53;99673.70;1749377;82;21090;-46
2021/05/20 06:33:44;;;;;;;0.00;0.00;;;;;;;14.75;79.18;99668.84;1749604;81;21033;-40
2021/05/20 06:36:11;;;;;;;0.37;0.37;;;;;;;14.80;78.87;99662.36;1750239;81;21051;-40
2021/05/20 06:38:38;;;;;;;1.65;0.57;;;;;;;14.89;79.27;99660.41;1747263;81;21026;-45
2021/05/20 06:41:09;;;;;;;0.30;0.30;;;;;;;15.06;78.68;99658.18;1748618;81;21452;-42
2021/05/20 06:43:34;;;;;;;0.15;0.15;;;;;;;15.17;77.75;99667.67;1749006;81;21049;-46
2021/05/20 06:46:00;;;;;;;0.10;0.10;;;;;;;15.34;76.79;99672.31;1746623;81;21583;-45
2021/05/20 06:48:26;;;;;;;0.10;0.10;;;;;;;15.48;76.30;99663.27;1747570;81;21193;-46
2021/05/20 06:50:53;;;;;;;0.10;0.10;;;;;;;15.61;74.83;99668.88;1748477;81;21090;-40
2021/05/20 06:53:22;;;;;;;0.20;0.10;;;;;;;15.73;74.95;99659.36;1749198;81;21475;-46
2021/05/20 06:55:48;;;;;;;0.10;0.10;;;;;;;15.84;73.79;99657.82;1745763;81;21065;-39
2021/05/20 07:00:41;;;;;;;0.62;0.33;;;;;;;16.12;73.37;99666.40;1746259;81;21026;-46
2021/05/20 07:03:15;;;;;;;0.15;0.15;;;;;;;16.26;71.91;99659.80;1746763;80;21054;-41
2021/05/20 07:05:39;;;;;;;0.20;0.20;;;;;;;16.39;71.40;99655.15;1748473;81;21047;-41
2021/05/20 07:08:05;;;;;;;0.20;0.20;;;;;;;16.44;68.78;99649.42;1744739;81;21042;-40
2021/05/20 07:10:32;;;;;;;0.23;0.17;;;;;;;16.47;69.40;99651.53;1747023;81;21406;-46
2021/05/20 07:13:00;;;;;;;0.25;0.23;;;;;;;16.53;68.22;99636.38;1747772;81;21177;-40
2021/05/20 07:15:28;;;;;;;0.10;0.10;;;;;;;16.52;68.17;99654.08;1744774;81;21576;-46
2021/05/20 07:17:55;;;;;;;0.03;0.03;;;;;;;16.59;67.76;99652.92;1749226;81;21571;-40
2021/05/20 07:20:21;;;;;;;0.10;0.10;;;;;;;16.61;66.83;99645.13;1750518;81;21094;-40
2021/05/20 07:22:48;;;;;;;0.40;0.20;;;;;;;16.63;66.55;99643.42;1750113;80;21046;-41
2021/05/20 07:25:14;;;;;;;0.23;0.23;;;;;;;16.68;66.80;99645.38;1737672;81;20994;-40
2021/05/20 07:27:41;;;;;;;0.95;0.30;;;;;;;16.76;66.08;99642.30;1746612;81;21074;-40
2021/05/20 07:30:09;;;;;;;0.20;0.20;;;;;;;16.85;65.25;99641.67;1746759;81;21030;-46
2021/05/20 07:32:36;;;;;;;0.00;0.00;;;;;;;16.88;64.52;99641.56;1747737;81;21011;-41
2021/05/20 07:35:02;;;;;;;0.10;0.10;;;;;;;16.89;64.80;99644.55;1749456;81;21075;-42
2021/05/20 07:37:29;;;;;;;0.30;0.30;;;;;;;16.95;64.44;99637.09;1747068;81;21045;-40
2021/05/20 07:39:56;;;;;;;0.10;0.10;;;;;;;17.03;64.72;99653.32;1750319;81;21014;-40
2021/05/20 07:42:23;;;;;;;0.45;0.30;;;;;;;17.16;63.46;99650.00;1750308;81;21126;-41
2021/05/20 07:44:54;;;;;;;0.20;0.20;;;;;;;17.25;64.82;99644.39;1748241;81;21796;-46
2021/05/20 07:47:17;;;;;;;0.30;0.30;;;;;;;17.40;64.37;99653.38;1749045;81;21031;-41
2021/05/20 07:49:45;;;;;;;0.10;0.10;;;;;;;17.54;63.04;99664.09;1747928;80;21065;-40
2021/05/20 07:52:12;;;;;;;0.10;0.10;;;;;;;17.70;61.63;99672.48;1749777;81;21011;-40
2021/05/20 07:54:39;;;;;;;0.10;0.10;;;;;;;17.80;61.59;99660.43;1750366;81;21079;-42
2021/05/20 07:57:05;;;;;;;0.50;0.50;;;;;;;17.87;61.54;99666.73;1745159;81;21571;-42
2021/05/20 07:59:32;;;;;;;0.40;0.40;;;;;;;17.93;61.50;99680.56;1745063;81;21053;-44
2021/05/20 08:04:46;;;;;;;0.10;0.10;;;;;;;18.18;61.21;99687.44;1745978;81;21094;-41
2021/05/20 08:10:07;;;;;;;3.65;0.20;;;;;;;18.46;58.60;99683.31;1748430;81;21560;-46
2021/05/20 08:12:18;;;;;;;0.35;0.20;;;;;;;18.59;57.52;99684.06;1745602;81;21019;-41
2021/05/20 08:14:47;;;;;;;0.10;0.10;;;;;;;18.66;57.69;99680.92;1748108;81;21015;-41
2021/05/20 08:17:14;;;;;;;0.20;0.20;;;;;;;18.73;57.32;99674.79;1744587;81;21061;-40
2021/05/20 08:19:40;;;;;;;0.28;0.28;;;;;;;18.76;56.75;99689.33;1746381;81;21022;-46
2021/05/20 08:22:07;;;;;;;0.25;0.20;;;;;;;18.72;55.83;99698.09;1750703;81;21014;-44
2021/05/20 08:24:33;;;;;;;0.45;0.10;;;;;;;18.64;55.22;99699.86;1749573;81;21051;-41
2021/05/20 08:27:00;;;;;;;0.10;0.10;;;;;;;18.57;56.44;99702.97;1747269;81;21497;-46
2021/05/20 08:29:28;;;;;;;0.23;0.23;;;;;;;18.57;57.74;99713.48;1748546;81;21055;-41
2021/05/20 08:31:54;;;;;;;1.10;0.62;;;;;;;18.62;56.82;99719.33;1748099;81;21178;-45
2021/05/20 08:34:21;;;;;;;0.62;0.62;;;;;;;18.59;56.65;99726.95;1749164;81;21070;-41
2021/05/20 08:36:48;;;;;;;0.20;0.20;;;;;;;18.55;56.39;99728.83;1745826;80;21082;-46
2021/05/20 08:39:14;;;;;;;0.23;0.23;;;;;;;18.52;55.34;99741.40;1747189;81;21074;-46
2021/05/20 08:41:41;;;;;;;0.00;0.00;;;;;;;18.45;55.44;99718.47;1749827;81;21058;-40
2021/05/20 08:44:11;;;;;;;0.10;0.10;;;;;;;18.38;55.83;99738.20;1746466;81;21053;-47
2021/05/20 08:46:37;;;;;;;0.23;0.20;;;;;;;18.39;57.17;99738.42;1750484;81;21098;-46
2021/05/20 08:49:14;;;;;;;0.20;0.20;;;;;;;18.58;57.99;99732.27;1747059;81;21041;-40
2021/05/20 08:51:44;;;;;;;0.10;0.10;;;;;;;18.87;56.39;99733.34;1747148;81;21061;-46
2021/05/20 08:54:13;;;;;;;0.13;0.10;;;;;;;19.00;53.77;99734.67;1740905;81;21050;-47
2021/05/20 08:56:45;;;;;;;0.20;0.15;;;;;;;18.95;53.58;99736.31;1748880;81;21043;-42
2021/05/20 08:59:12;;;;;;;0.30;0.20;;;;;;;18.92;52.99;99733.67;1748518;81;21066;-46
2021/05/20 09:01:41;;;;;;;0.20;0.20;;;;;;;18.96;53.11;99742.06;1745976;81;21348;-46
2021/05/20 09:04:08;;;;;;;0.10;0.08;;;;;;;18.99;52.21;99730.28;1748510;81;21146;-46
2021/05/20 09:06:41;;;;;;;0.60;0.35;;;;;;;18.97;51.89;99733.42;1754047;81;21979;-47
2021/05/20 09:09:14;;;;;;;0.00;0.00;;;;;;;19.07;53.20;99730.72;1750069;81;21054;-41
2021/05/20 09:11:36;;;;;;;0.20;0.15;;;;;;;19.34;54.04;99734.61;1745237;81;21041;-41
2021/05/20 09:14:04;;;;;;;0.13;0.13;;;;;;;19.54;52.46;99737.70;1747812;81;21496;-41
2021/05/20 09:16:35;;;;;;;0.20;0.20;;;;;;;19.61;52.60;99736.25;1746179;81;21592;-46
2021/05/20 09:19:03;;;;;;;0.10;0.10;;;;;;;19.65;51.89;99744.89;1746529;81;21173;-46
2021/05/20 09:21:30;;;;;;;0.40;0.30;;;;;;;19.66;51.11;99745.12;1747387;81;21082;-41
2021/05/20 09:23:58;;;;;;;1.37;0.88;;;;;;;19.68;51.73;99748.38;1747487;81;21058;-40
2021/05/20 09:26:35;;;;;;;0.60;0.60;;;;;;;19.78;51.51;99752.55;1750528;81;21047;-46
2021/05/20 09:29:09;;;;;;;0.30;0.30;;;;;;;19.76;51.53;99764.02;1747949;81;21496;-41
2021/05/20 09:31:39;;;;;;;0.10;0.10;;;;;;;19.50;51.11;99762.31;1745827;81;21093;-46
2021/05/20 09:34:13;;;;;;;0.20;0.20;;;;;;;19.50;51.11;99762.31;1733551;81;21029;-41
2021/05/20 09:36:49;;;;;;;0.10;0.10;;;;;;;19.46;51.24;99750.33;1746607;81;21039;-46
2021/05/20 09:39:17;;;;;;;0.10;0.10;;;;;;;19.51;51.85;99766.68;1748063;81;21098;-41
2021/05/20 09:41:43;;;;;;;0.23;0.23;;;;;;;19.41;52.07;99768.04;1750113;81;21065;-46
2021/05/20 09:44:29;;;;;;;0.20;0.20;;;;;;;19.32;52.10;99772.34;1744577;81;21046;-41
2021/05/20 09:46:56;;;;;;;0.20;0.20;;;;;;;19.39;53.13;99764.81;1747621;81;21046;-40
2021/05/20 09:49:26;;;;;;;0.10;0.10;;;;;;;19.56;53.22;99767.83;1749723;81;21576;-46
2021/05/20 09:52:19;;;;;;;0.23;0.15;;;;;;;19.70;52.39;99774.33;1747889;81;21075;-41
2021/05/20 09:54:46;;;;;;;0.40;0.40;;;;;;;19.67;51.78;99777.23;1751636;81;21560;-46
2021/05/20 09:57:29;;;;;;;0.30;0.15;;;;;;;19.57;52.39;99765.27;1747042;81;21057;-46
2021/05/20 10:00:09;;;;;;;0.20;0.20;;;;;;;19.66;52.74;99774.23;1745340;81;21014;-42
2021/05/20 10:02:38;;;;;;;0.47;0.37;;;;;;;19.75;50.18;99775.45;1743718;81;21042;-46
2021/05/20 10:05:28;;;;;;;0.25;0.25;;;;;;;19.74;50.96;99768.31;1744915;81;21098;-46
2021/05/20 10:07:55;;;;;;;0.30;0.30;;;;;;;19.74;50.96;99768.31;1747482;81;21066;-42
2021/05/20 10:10:22;;;;;;;0.55;0.55;;;;;;;19.70;51.44;99768.20;1750024;81;21086;-47
2021/05/20 10:12:48;;;;;;;0.35;0.30;;;;;;;19.70;51.44;99768.20;1735240;81;21014;-41
2021/05/20 10:15:18;;;;;;;0.17;0.17;;;;;;;19.72;51.91;99770.05;1748203;81;21398;-47
2021/05/20 10:17:45;;;;;;;0.10;0.10;;;;;;;19.88;52.25;99772.00;1745685;81;20998;-40
2021/05/20 10:20:18;;;;;;;0.10;0.10;;;;;;;20.18;51.90;99755.12;1746109;81;21006;-47
2021/05/20 10:22:45;;;;;;;0.20;0.20;;;;;;;20.50;50.81;99760.59;1749543;81;21642;-41
2021/05/20 10:25:12;;;;;;;0.25;0.25;;;;;;;20.83;49.47;99757.94;1748772;81;21892;-47
2021/05/20 10:27:39;;;;;;;0.10;0.10;;;;;;;21.07;48.41;99769.89;1744579;81;21050;-46
2021/05/20 10:30:09;;;;;;;0.10;0.10;;;;;;;21.03;47.64;99765.08;1744615;81;21549;-41
2021/05/20 10:32:36;;;;;;;0.30;0.25;;;;;;;20.94;47.68;99776.98;1744818;81;21034;-40
2021/05/20 10:35:15;;;;;;;0.20;0.20;;;;;;;20.73;46.24;99773.20;1736072;81;21034;-44
2021/05/20 10:37:43;;;;;;;0.20;0.20;;;;;;;20.36;47.48;99776.33;1749446;81;21559;-42
2021/05/20 10:40:32;;;;;;;0.17;0.17;;;;;;;20.08;48.36;99778.42;1748717;81;21584;-41
2021/05/20 10:43:05;;;;;;;0.60;0.50;;;;;;;19.99;49.38;99777.23;1749945;81;21517;-41
2021/05/20 10:45:32;;;;;;;0.23;0.23;;;;;;;20.07;49.17;99773.46;1744499;81;21125;-41
2021/05/20 10:48:10;;;;;;;0.65;0.50;;;;;;;20.16;48.46;99767.16;1748951;81;21532;-46
2021/05/20 10:50:57;;;;;;;0.20;0.20;;;;;;;20.18;49.19;99782.06;1750408;81;21031;-40
2021/05/20 10:53:51;;;;;;;0.53;0.37;;;;;;;20.18;49.74;99789.79;1747561;81;21022;-47
2021/05/20 10:56:41;;;;;;;0.20;0.20;;;;;;;20.15;49.85;99791.08;1747870;81;21063;-46
2021/05/20 10:59:32;;;;;;;0.15;0.10;;;;;;;20.06;49.46;99798.21;1749311;81;21055;-42
2021/05/20 11:01:58;;;;;;;0.35;0.35;;;;;;;19.97;49.26;99802.55;1751234;81;21031;-46
2021/05/20 11:04:37;;;;;;;0.20;0.20;;;;;;;19.99;50.39;99804.97;1732807;81;21692;-41
2021/05/20 11:07:05;;;;;;;0.28;0.28;;;;;;;20.05;50.60;99806.29;1751167;81;21596;-46
2021/05/20 11:09:43;;;;;;;0.20;0.20;;;;;;;20.17;49.90;99803.42;1749644;81;21035;-47
2021/05/20 11:12:11;;;;;;;0.20;0.20;;;;;;;20.33;48.85;99802.61;1748672;81;21137;-41
2021/05/20 11:14:37;;;;;;;0.15;0.10;;;;;;;20.49;49.58;99796.42;1732462;81;21087;-46
2021/05/20 11:17:31;;;;;;;0.17;0.17;;;;;;;20.61;49.12;99798.31;1747729;81;21085;-41
2021/05/20 11:20:27;;;;;;;0.50;0.50;;;;;;;20.63;48.09;99804.90;1746997;81;21556;-46
2021/05/20 11:23:21;;;;;;;0.15;0.15;;;;;;;20.63;46.65;99809.86;1748254;81;21493;-46
2021/05/20 11:26:05;;;;;;;0.30;0.30;;;;;;;20.52;47.00;99801.84;1736938;81;21086;-46
2021/05/20 11:28:55;;;;;;;0.00;0.00;;;;;;;20.33;47.21;99806.19;1745142;81;21042;-45
2021/05/20 11:31:23;;;;;;;0.10;0.10;;;;;;;20.44;49.18;99814.75;1702102;81;21056;-46
2021/05/20 11:36:42;;;;;;;0.08;0.08;;;;;;;20.52;46.57;99816.51;1735932;81;21033;-43
2021/05/20 11:39:14;;;;;;;0.40;0.40;;;;;;;20.37;47.37;99814.58;1748610;81;21615;-47
2021/05/20 11:41:43;;;;;;;0.20;0.20;;;;;;;20.32;47.71;99820.41;1751604;81;21623;-42
2021/05/20 11:44:13;;;;;;;0.15;0.15;;;;;;;20.27;49.04;99815.14;1747362;81;21030;-47
2021/05/20 11:46:45;;;;;;;0.10;0.10;;;;;;;20.34;49.43;99825.81;1744586;81;21547;-41